Terminal Aerodrome Forecast
Issued by NWS Austin/San Antonio, TX

Home | Current Version | Previous Version | Text Only | Print | Product List | Glossary On
Versions: 1 2 3 4 5 6 7 8 9 10 11 12 13 14 15 16 17 18 19 20 21 22 23 24 25
000
FTUS44 KEWX 282101 AAC
TAFDRT
TAF AMD
KDRT 282101Z 2821/2918 13017G27KT P6SM FEW019 SCT030
     FM290400 33020G30KT 6SM -TSRA BKN030CB
     FM290600 32009KT P6SM SCT100=

USA.gov is the U.S. government's official web portal to all federal, state and local government web resources and services.